North River — WYR2549 — position and weather

sailwx.info

Track history (hours):
 
Tides and Currents Weather Stations Pressure Air Temp Water Temp Dewpoint Dewpoint Depression Visibility Wind Speed Wind Dir Waves Ship Positions

North River

Owner: CITY OF NEW YORK, Brooklyn, NY. More information available from US FCC via Universal Licensing System and Coast Guard Vessel Documentation Center.

Last reported at 2018-Jan-23 13:56 UTC. Time now 2018-Jan-23 16:08 UTC.
Position N 40°47' W 073°55'.

Length 78 m.

Type: Tanker. MMSI: 367074110.

Date/timePositionNaut miles runAvg speedWind from/ knotsBaromVisibWave heightAir tempDewpointWater temp
2018-Jan-23 13:56N 40°47' W 073°55'512.8
2018-Jan-23 13:31N 40°42' W 073°59'2 3.8
2018-Jan-23 13:00N 40°44' W 073°58'3 0.1
2018-Jan-21 17:58N 40°47' W 073°55'511.0
2018-Jan-21 17:30N 40°43' W 073°59'4 7.1
2018-Jan-21 17:00N 40°46' W 074°01'4 8.9
2018-Jan-21 16:30N 40°50' W 073°58'0 0.0
2018-Jan-21 16:00N 40°50' W 073°58'0 0.0
2018-Jan-21 15:29N 40°50' W 073°58'0 0.0
2018-Jan-21 15:00N 40°50' W 073°58'0 1.0
2018-Jan-21 14:30N 40°49' W 073°58'714.0
2018-Jan-21 14:00N 40°43' W 074°01'4 7.1
2018-Jan-21 13:30N 40°45' W 073°58'3 5.3
2018-Jan-21 12:58N 40°47' W 073°55'0 0.0
2018-Jan-19 21:18N 40°47' W 073°55'2 5.7
2018-Jan-19 21:00N 40°48' W 073°53'0 0.0
2018-Jan-19 20:30N 40°48' W 073°53'0 0.0
2018-Jan-19 20:00N 40°48' W 073°53'0 0.0
2018-Jan-19 19:30N 40°48' W 073°53'0 0.0
2018-Jan-19 19:00N 40°48' W 073°53'3 5.9
2018-Jan-19 18:29N 40°46' W 073°57'4 8.9
2018-Jan-19 18:00N 40°43' W 073°59'0 0.4
2018-Jan-19 17:30N 40°42' W 073°59'0 0.0
2018-Jan-19 17:00N 40°42' W 073°59'0 0.0
2018-Jan-19 16:30N 40°42' W 073°59'0 0.8
2018-Jan-19 16:00N 40°43' W 073°58'5 6.0
2018-Jan-19 15:08N 40°47' W 073°55'0 0.0
2018-Jan-19 14:37N 40°47' W 073°55'0 0.0
2018-Jan-19 14:15N 40°47' W 073°55'0 0.0
2018-Jan-19 14:00N 40°47' W 073°55'0 0.0
2018-Jan-19 13:23N 40°47' W 073°55'  
Track history (hours):
 
Tides and Currents Weather Stations Pressure Air Temp Water Temp Dewpoint Dewpoint Depression Visibility Wind Speed Wind Dir Waves Ship Positions

North River

Owner: CITY OF NEW YORK, Brooklyn, NY. More information available from US FCC via Universal Licensing System and Coast Guard Vessel Documentation Center.

Last reported at 2018-Jan-23 13:56 UTC. Time now 2018-Jan-23 16:08 UTC.
Position N 40°47' W 073°55'.

Length 78 m.

Type: Tanker. MMSI: 367074110.

Date/timePositionNaut miles runAvg speedWind from/ knotsBaromVisibWave heightAir tempDewpointWater temp
2018-Jan-23 13:56N 40°47' W 073°55'512.8
2018-Jan-23 13:31N 40°42' W 073°59'2 3.8
2018-Jan-23 13:00N 40°44' W 073°58'3 0.1
2018-Jan-21 17:58N 40°47' W 073°55'511.0
2018-Jan-21 17:30N 40°43' W 073°59'4 7.1
2018-Jan-21 17:00N 40°46' W 074°01'4 8.9
2018-Jan-21 16:30N 40°50' W 073°58'0 0.0
2018-Jan-21 16:00N 40°50' W 073°58'0 0.0
2018-Jan-21 15:29N 40°50' W 073°58'0 0.0
2018-Jan-21 15:00N 40°50' W 073°58'0 1.0
2018-Jan-21 14:30N 40°49' W 073°58'714.0
2018-Jan-21 14:00N 40°43' W 074°01'4 7.1
2018-Jan-21 13:30N 40°45' W 073°58'3 5.3
2018-Jan-21 12:58N 40°47' W 073°55'0 0.0
2018-Jan-19 21:18N 40°47' W 073°55'2 5.7
2018-Jan-19 21:00N 40°48' W 073°53'0 0.0
2018-Jan-19 20:30N 40°48' W 073°53'0 0.0
2018-Jan-19 20:00N 40°48' W 073°53'0 0.0
2018-Jan-19 19:30N 40°48' W 073°53'0 0.0
2018-Jan-19 19:00N 40°48' W 073°53'3 5.9
2018-Jan-19 18:29N 40°46' W 073°57'4 8.9
2018-Jan-19 18:00N 40°43' W 073°59'0 0.4
2018-Jan-19 17:30N 40°42' W 073°59'0 0.0
2018-Jan-19 17:00N 40°42' W 073°59'0 0.0
2018-Jan-19 16:30N 40°42' W 073°59'0 0.8
2018-Jan-19 16:00N 40°43' W 073°58'5 6.0
2018-Jan-19 15:08N 40°47' W 073°55'0 0.0
2018-Jan-19 14:37N 40°47' W 073°55'0 0.0
2018-Jan-19 14:15N 40°47' W 073°55'0 0.0
2018-Jan-19 14:00N 40°47' W 073°55'0 0.0
2018-Jan-19 13:23N 40°47' W 073°55'  

Dump ship's entire track history